Le Touquet-Côte d'Opale Airport

Airport
ICAO code: 
LFAT
IATA Code: 
LTQ
Summary
ICAO Region: 
EUR
Territory: 
Location: 
, Nord-Pas-de-Calais
Serving: 
Le Tourquet
Elevation: 
36 ft
Coordinates: 
Aerial View: 
50° 31' 2.586" N, 1° 37' 14.113" E
Metar
Observation
LFAT 210500Z AUTO 34005KT 9999 OVC042 03/02 Q1038
Station
Le Touquet
Date/Time
2022-01-21 05:00:00
Wind direction
340°
Wind speed
05 kts
Lowest cloud amount
overcast
Temperature
3°C
Dew point
2°C
Humidity
93%
QNH
1038 hPa
Weather condition
n/a

Runways

Designator Length Width Surface Rops
6/24 0 0 UNK No/No
14/32 1850 40 ASP No/No
Airport map: 
Aerial View: 

SKYbrary Partners:

Safety knowledge contributed by: